createdAt,value
2023-01-30T00:05:29.422Z,51.07
2023-01-30T00:25:29.423Z,51.07
2023-01-30T00:45:29.341Z,51.08
2023-01-30T01:05:29.291Z,51.08
2023-01-30T01:25:29.313Z,51.08
2023-01-30T01:45:29.160Z,51.07
2023-01-30T02:05:29.313Z,51.07
2023-01-30T02:25:28.539Z,51.08
2023-01-30T02:45:28.746Z,51.07
2023-01-30T03:05:28.518Z,51.08
2023-01-30T03:25:29.339Z,51.09
2023-01-30T03:45:29.260Z,51.08
2023-01-30T04:05:29.279Z,51.08
2023-01-30T04:25:29.236Z,51.09
2023-01-30T04:45:29.411Z,51.07
2023-01-30T05:05:29.127Z,51.07
2023-01-30T05:25:29.203Z,51.08
2023-01-30T05:45:29.199Z,51.09
2023-01-30T06:05:28.652Z,51.08
2023-01-30T06:25:29.195Z,51.08
2023-01-30T07:05:29.196Z,51.07
2023-01-30T08:05:28.028Z,51.08
2023-01-30T08:25:29.106Z,51.07
2023-01-30T08:45:29.107Z,51.07
2023-01-30T09:05:29.116Z,51.07
2023-01-30T09:25:29.180Z,51.07
2023-01-30T09:45:29.069Z,51.07
2023-01-30T10:05:29.051Z,51.07
2023-01-30T10:25:28.912Z,51.07
2023-01-30T10:45:29.052Z,51.08
2023-01-30T11:05:29.025Z,51.08
2023-01-30T11:25:29.023Z,51.08
2023-01-30T11:45:28.891Z,51.07
2023-01-30T12:45:29.038Z,51.08
2023-01-30T13:05:28.945Z,51.08
2023-01-30T13:25:28.923Z,51.08
2023-01-30T14:05:37.226Z,51.08
2023-01-30T14:45:28.874Z,51.09
2023-01-30T15:05:28.109Z,51.08
2023-01-30T15:25:28.750Z,51.07
2023-01-30T15:45:28.838Z,51.07
2023-01-30T16:25:28.326Z,51.06
2023-01-30T16:45:28.794Z,51.05
2023-01-30T17:05:28.787Z,51.05
2023-01-30T17:25:28.818Z,51.04
2023-01-30T17:45:28.766Z,51.03
2023-01-30T18:05:28.628Z,51.04
2023-01-30T18:25:28.763Z,51.03
2023-01-30T18:45:28.754Z,51.03
2023-01-30T19:05:28.735Z,51.03
2023-01-30T19:45:27.947Z,51.03
2023-01-30T20:05:28.202Z,51.02
2023-01-30T20:25:28.720Z,51.02
2023-01-30T20:45:28.734Z,51.02
2023-01-30T21:05:28.708Z,51.02
2023-01-30T21:25:28.560Z,51.02
2023-01-30T21:45:28.165Z,51.02
2023-01-30T22:05:28.678Z,51.01
2023-01-30T22:25:28.679Z,51.01
2023-01-30T22:45:28.675Z,51.01
2023-01-30T23:05:28.664Z,51
2023-01-30T23:25:28.656Z,51
2023-01-30T23:45:28.657Z,51
